createdAt,value
2023-04-18T00:01:12.397Z,9.65
2023-04-18T00:03:48.607Z,9.63
2023-04-18T00:06:22.322Z,9.63
2023-04-18T00:08:54.244Z,9.61
2023-04-18T00:11:25.873Z,9.61
2023-04-18T00:13:57.702Z,9.61
2023-04-18T00:16:29.517Z,9.65
2023-04-18T00:19:02.526Z,9.68
2023-04-18T00:21:34.126Z,9.70
2023-04-18T00:24:05.769Z,9.69
2023-04-18T00:26:37.218Z,9.65
2023-04-18T00:29:08.998Z,9.68
2023-04-18T00:31:40.633Z,9.70
2023-04-18T00:34:12.213Z,9.74
2023-04-18T00:36:43.690Z,9.75
2023-04-18T00:39:15.164Z,9.76
2023-04-18T00:41:46.721Z,9.75
2023-04-18T00:44:18.322Z,9.76
2023-04-18T00:46:49.711Z,9.77
2023-04-18T00:49:21.230Z,9.78
2023-04-18T00:51:52.525Z,9.81
2023-04-18T00:54:23.938Z,9.83
2023-04-18T00:56:56.277Z,9.84
2023-04-18T00:59:27.795Z,9.89
2023-04-18T01:01:59.206Z,9.93
2023-04-18T01:04:30.486Z,9.90
2023-04-18T01:07:02.351Z,9.89
2023-04-18T01:09:33.858Z,9.86
2023-04-18T01:12:05.606Z,9.81
2023-04-18T01:14:36.952Z,9.76
2023-04-18T01:17:10.956Z,9.73
2023-04-18T01:19:42.817Z,9.76
2023-04-18T01:22:14.371Z,9.70
2023-04-18T01:24:45.919Z,9.65
2023-04-18T01:27:17.263Z,9.60
2023-04-18T01:29:48.614Z,9.57
2023-04-18T01:32:20.716Z,9.56
2023-04-18T01:34:52.456Z,9.56
2023-04-18T01:37:24.174Z,9.57
2023-04-18T01:39:55.561Z,9.62
2023-04-18T01:42:27.061Z,9.68
2023-04-18T01:44:58.551Z,9.67
2023-04-18T01:47:30.063Z,9.65
2023-04-18T01:50:01.593Z,9.66
2023-04-18T01:52:32.850Z,9.66
2023-04-18T01:55:04.355Z,9.63
2023-04-18T01:57:37.037Z,9.62
2023-04-18T02:00:09.602Z,9.64
2023-04-18T02:02:41.328Z,9.67
2023-04-18T02:05:12.808Z,9.67
2023-04-18T02:07:44.149Z,9.66
2023-04-18T02:10:15.460Z,9.67
2023-04-18T02:12:47.026Z,9.68
2023-04-18T02:15:18.476Z,9.67
2023-04-18T02:17:50.572Z,9.69
2023-04-18T02:20:22.138Z,9.69
2023-04-18T02:22:53.633Z,9.69
2023-04-18T02:25:27.146Z,9.69
2023-04-18T02:27:58.897Z,9.71
2023-04-18T02:30:30.299Z,9.75
2023-04-18T02:33:01.701Z,9.77
2023-04-18T02:35:33.240Z,9.79
2023-04-18T02:38:04.862Z,9.79
2023-04-18T02:40:36.457Z,9.81
2023-04-18T02:43:08.409Z,9.79
2023-04-18T02:45:39.721Z,9.77
2023-04-18T02:48:11.238Z,9.80
2023-04-18T02:50:42.805Z,9.80
2023-04-18T02:53:14.390Z,9.81
2023-04-18T02:55:45.764Z,9.81
2023-04-18T02:58:17.028Z,9.84
2023-04-18T03:00:50.288Z,9.89
2023-04-18T03:03:21.988Z,9.89
2023-04-18T03:05:53.652Z,9.85
2023-04-18T03:08:25.054Z,9.83
2023-04-18T03:10:56.785Z,9.84
2023-04-18T03:13:28.234Z,9.87
2023-04-18T03:16:00.019Z,9.90
2023-04-18T03:18:31.759Z,9.92
2023-04-18T03:21:02.869Z,9.94
2023-04-18T03:23:34.294Z,9.96
2023-04-18T03:26:05.785Z,9.97
2023-04-18T03:28:37.196Z,10.00
2023-04-18T03:31:08.776Z,10.01
2023-04-18T03:33:45.922Z,9.98
2023-04-18T03:36:21.245Z,9.97
2023-04-18T03:38:52.854Z,10.01
2023-04-18T03:41:25.106Z,9.98
2023-04-18T03:43:56.701Z,9.92
2023-04-18T03:46:28.040Z,9.90
2023-04-18T03:48:59.309Z,9.93
2023-04-18T03:51:31.398Z,9.93
2023-04-18T03:54:03.035Z,9.93
2023-04-18T03:56:34.608Z,9.91
2023-04-18T03:59:05.901Z,9.88
2023-04-18T04:01:37.487Z,9.90
2023-04-18T04:04:12.213Z,9.92
2023-04-18T04:06:44.049Z,9.93
2023-04-18T04:09:15.712Z,9.96
2023-04-18T04:11:58.688Z,10.01
2023-04-18T04:14:38.337Z,10.02
2023-04-18T04:17:09.909Z,9.99
2023-04-18T04:19:41.606Z,9.99
2023-04-18T04:22:13.708Z,9.99
2023-04-18T04:24:47.026Z,10.00
2023-04-18T04:27:19.108Z,10.03
2023-04-18T04:29:51.966Z,10.04
2023-04-18T04:32:24.144Z,10.06
2023-04-18T04:34:56.500Z,10.11
2023-04-18T04:37:27.852Z,10.18
2023-04-18T04:40:01.162Z,10.23
2023-04-18T04:42:32.607Z,10.27
2023-04-18T04:45:04.337Z,10.24
2023-04-18T04:47:35.963Z,10.17
2023-04-18T04:50:14.861Z,10.16
2023-04-18T04:52:46.315Z,10.19
2023-04-18T04:55:17.957Z,10.21
2023-04-18T04:57:49.531Z,10.19
2023-04-18T05:00:22.144Z,10.20
2023-04-18T05:02:54.710Z,10.21
2023-04-18T05:05:26.083Z,10.22
2023-04-18T05:07:57.429Z,10.26
2023-04-18T05:10:28.826Z,10.32
2023-04-18T05:13:00.200Z,10.37
2023-04-18T05:15:31.609Z,10.42
2023-04-18T05:18:02.965Z,10.42
2023-04-18T05:20:34.551Z,10.42
2023-04-18T05:23:06.133Z,10.41
2023-04-18T05:25:37.717Z,10.40
2023-04-18T05:28:09.560Z,10.45
2023-04-18T05:30:40.952Z,10.46
2023-04-18T05:33:12.176Z,10.45
2023-04-18T05:35:43.740Z,10.47
2023-04-18T05:38:15.328Z,10.49
2023-04-18T05:40:46.979Z,10.48
2023-04-18T05:43:18.262Z,10.43
2023-04-18T05:45:49.820Z,10.39
2023-04-18T05:48:21.586Z,10.41
2023-04-18T05:50:53.489Z,10.46
2023-04-18T05:53:24.888Z,10.47
2023-04-18T05:55:57.783Z,10.54
2023-04-18T05:58:30.071Z,10.62
2023-04-18T06:01:01.926Z,10.68
2023-04-18T06:03:34.265Z,10.72
2023-04-18T06:06:06.197Z,10.71
2023-04-18T06:08:37.938Z,10.73
2023-04-18T06:11:09.727Z,10.76
2023-04-18T06:13:41.419Z,10.74
2023-04-18T06:16:13.357Z,10.72
2023-04-18T06:18:44.518Z,10.70
2023-04-18T06:21:15.898Z,10.71
2023-04-18T06:23:47.440Z,10.73
2023-04-18T06:26:18.946Z,10.74
2023-04-18T06:28:50.384Z,10.75
2023-04-18T06:31:21.714Z,10.77
2023-04-18T06:33:53.173Z,10.79
2023-04-18T06:36:24.668Z,10.88
2023-04-18T06:38:56.229Z,10.96
2023-04-18T06:41:27.735Z,10.95
2023-04-18T06:44:04.243Z,10.98
2023-04-18T06:46:36.159Z,11.03
2023-04-18T06:49:07.639Z,11.06
2023-04-18T06:51:39.274Z,11.05
2023-04-18T06:54:10.906Z,11.02
2023-04-18T06:56:42.031Z,11.03
2023-04-18T06:59:13.496Z,11.12
2023-04-18T07:01:45.118Z,11.20
2023-04-18T07:04:17.211Z,11.28
2023-04-18T07:06:48.872Z,11.40
2023-04-18T07:09:20.230Z,11.48
2023-04-18T07:11:52.801Z,11.56
2023-04-18T07:14:24.745Z,11.68
2023-04-18T07:16:57.790Z,11.78
2023-04-18T07:19:29.760Z,11.82
2023-04-18T07:22:01.394Z,11.89
2023-04-18T07:24:32.930Z,11.97
2023-04-18T07:27:05.004Z,12.08
2023-04-18T07:29:36.612Z,12.12
2023-04-18T07:32:08.635Z,12.17
2023-04-18T07:34:40.456Z,12.18
2023-04-18T07:37:13.423Z,12.16
2023-04-18T07:39:46.245Z,12.13
2023-04-18T07:42:17.893Z,12.08
2023-04-18T07:44:49.789Z,12.03
2023-04-18T07:47:22.276Z,12.00
2023-04-18T07:49:54.115Z,12.01
2023-04-18T07:52:25.926Z,12.06
2023-04-18T07:54:57.653Z,12.14
2023-04-18T07:57:29.350Z,12.22
2023-04-18T08:00:01.023Z,12.34
2023-04-18T08:02:32.565Z,12.47
2023-04-18T08:05:04.545Z,12.59
2023-04-18T08:07:36.454Z,12.70
2023-04-18T08:10:08.631Z,12.82
2023-04-18T08:12:40.185Z,12.94
2023-04-18T08:15:12.371Z,12.96
2023-04-18T08:17:45.327Z,12.94
2023-04-18T08:20:16.688Z,12.94
2023-04-18T08:23:05.200Z,12.93
2023-04-18T08:25:39.048Z,12.96
2023-04-18T08:28:11.168Z,13.03
2023-04-18T08:30:43.391Z,13.17
2023-04-18T08:33:15.005Z,13.31
2023-04-18T08:35:46.598Z,13.41
2023-04-18T08:38:18.476Z,13.49
2023-04-18T08:40:49.944Z,13.67
2023-04-18T08:43:21.404Z,13.91
2023-04-18T08:45:53.971Z,14.06
2023-04-18T08:48:42.978Z,14.22
2023-04-18T08:51:14.343Z,14.42
2023-04-18T08:53:46.038Z,14.58
2023-04-18T08:56:37.500Z,14.71
2023-04-18T08:59:26.732Z,14.79
2023-04-18T09:01:59.514Z,14.85
2023-04-18T09:04:38.341Z,15.01
2023-04-18T09:07:11.621Z,15.14
2023-04-18T09:09:46.447Z,15.18
2023-04-18T09:12:19.569Z,15.27
2023-04-18T09:14:51.814Z,15.49
2023-04-18T09:17:34.719Z,15.61
2023-04-18T09:20:36.003Z,16.01
2023-04-18T09:23:26.218Z,16.17
2023-04-18T09:25:59.221Z,16.13
2023-04-18T09:28:31.882Z,16.07
2023-04-18T09:31:09.283Z,16.18
2023-04-18T09:33:43.153Z,16.44
2023-04-18T09:36:21.412Z,16.75
2023-04-18T09:38:56.298Z,16.99
2023-04-18T09:41:30.601Z,17.26
2023-04-18T09:44:14.306Z,17.56
2023-04-18T09:46:47.675Z,17.81
2023-04-18T09:49:19.255Z,18.04
2023-04-18T09:51:51.167Z,18.17
2023-04-18T09:54:24.161Z,18.21
2023-04-18T09:56:56.582Z,18.21
2023-04-18T09:59:31.000Z,18.31
2023-04-18T10:02:03.560Z,18.39
2023-04-18T10:04:35.756Z,18.44
2023-04-18T10:07:07.590Z,18.63
2023-04-18T10:09:39.791Z,18.86
2023-04-18T10:12:12.617Z,19.06
2023-04-18T10:14:44.450Z,18.89
2023-04-18T10:17:17.180Z,19.16
2023-04-18T10:19:48.527Z,19.44
2023-04-18T10:22:20.162Z,19.62
2023-04-18T10:24:53.823Z,19.72
2023-04-18T10:27:38.761Z,19.95
2023-04-18T10:30:11.584Z,20.17
2023-04-18T10:32:43.203Z,20.25
2023-04-18T10:35:14.512Z,19.97
2023-04-18T10:37:52.069Z,19.83
2023-04-18T10:40:34.580Z,20.06
2023-04-18T10:43:07.016Z,20.01
2023-04-18T10:45:38.821Z,20.01
2023-04-18T10:48:27.754Z,20.15
2023-04-18T10:51:15.749Z,20.30
2023-04-18T10:53:49.726Z,20.06
2023-04-18T10:56:22.437Z,19.84
2023-04-18T10:58:54.160Z,19.71
2023-04-18T11:01:31.728Z,19.89
2023-04-18T11:04:04.026Z,20.04
2023-04-18T11:06:35.616Z,19.86
2023-04-18T11:09:13.741Z,19.68
2023-04-18T11:11:45.644Z,19.89
2023-04-18T11:14:17.183Z,19.90
2023-04-18T11:16:48.771Z,20.04
2023-04-18T11:19:21.194Z,20.18
2023-04-18T11:21:52.925Z,19.97
2023-04-18T11:24:25.385Z,19.53
2023-04-18T11:26:57.131Z,19.09
2023-04-18T11:29:29.112Z,18.67
2023-04-18T11:32:00.701Z,18.54
2023-04-18T11:34:32.220Z,18.66
2023-04-18T11:37:07.089Z,19.12
2023-04-18T11:39:42.111Z,19.32
2023-04-18T11:42:13.569Z,19.42
2023-04-18T11:44:49.360Z,19.43
2023-04-18T11:47:29.067Z,19.17
2023-04-18T11:50:01.596Z,18.86
2023-04-18T11:52:33.259Z,18.48
2023-04-18T11:55:13.856Z,18.14
2023-04-18T11:57:45.773Z,17.94
2023-04-18T12:00:18.252Z,17.81
2023-04-18T12:02:51.591Z,17.61
2023-04-18T12:05:29.935Z,17.49
2023-04-18T12:08:08.169Z,17.42
2023-04-18T12:10:39.946Z,17.42
2023-04-18T12:13:11.490Z,17.44
2023-04-18T12:15:44.711Z,17.39
2023-04-18T12:18:16.688Z,17.32
2023-04-18T12:20:50.426Z,17.25
2023-04-18T12:23:31.820Z,17.22
2023-04-18T12:26:04.448Z,17.14
2023-04-18T12:28:36.291Z,17.16
2023-04-18T12:31:07.722Z,17.21
2023-04-18T12:33:39.068Z,17.26
2023-04-18T12:36:11.248Z,17.25
2023-04-18T12:38:42.873Z,17.18
2023-04-18T12:41:14.347Z,17.12
2023-04-18T12:43:45.738Z,17.06
2023-04-18T12:46:17.009Z,16.97
2023-04-18T12:48:48.680Z,16.89
2023-04-18T12:51:20.349Z,16.87
2023-04-18T12:53:51.785Z,16.77
2023-04-18T12:56:23.133Z,16.61
2023-04-18T12:58:54.536Z,16.50
2023-04-18T13:01:26.384Z,16.41
2023-04-18T13:04:10.956Z,16.41
2023-04-18T13:06:44.428Z,16.44
2023-04-18T13:09:16.750Z,16.43
2023-04-18T13:11:49.508Z,16.47
2023-04-18T13:14:21.377Z,16.55
2023-04-18T13:16:53.109Z,16.61
2023-04-18T13:19:24.631Z,16.59
2023-04-18T13:21:55.927Z,16.54
2023-04-18T13:24:27.205Z,16.55
2023-04-18T13:26:58.572Z,16.63
2023-04-18T13:29:30.170Z,16.65
2023-04-18T13:32:01.610Z,16.61
2023-04-18T13:34:34.638Z,16.53
2023-04-18T13:37:06.088Z,16.49
2023-04-18T13:39:37.304Z,16.45
2023-04-18T13:42:09.130Z,16.42
2023-04-18T13:44:40.775Z,16.40
2023-04-18T13:47:12.138Z,16.40
2023-04-18T13:49:43.719Z,16.39
2023-04-18T13:52:15.209Z,16.36
2023-04-18T13:54:46.622Z,16.33
2023-04-18T13:57:18.060Z,16.32
2023-04-18T13:59:49.400Z,16.36
2023-04-18T14:02:20.774Z,16.37
2023-04-18T14:04:54.946Z,16.30
2023-04-18T14:07:26.688Z,16.25
2023-04-18T14:10:00.321Z,16.27
2023-04-18T14:12:31.725Z,16.26
2023-04-18T14:15:03.493Z,16.19
2023-04-18T14:17:34.953Z,16.17
2023-04-18T14:20:07.921Z,16.22
2023-04-18T14:22:39.515Z,16.28
2023-04-18T14:25:11.520Z,16.37
2023-04-18T14:27:42.866Z,16.41
2023-04-18T14:30:15.797Z,16.42
2023-04-18T14:32:47.404Z,16.44
2023-04-18T14:35:18.950Z,16.49
2023-04-18T14:37:50.352Z,16.58
2023-04-18T14:40:22.229Z,16.63
2023-04-18T14:42:53.644Z,16.67
2023-04-18T14:45:25.151Z,16.72
2023-04-18T14:47:56.840Z,16.69
2023-04-18T14:50:28.361Z,16.66
2023-04-18T14:52:59.712Z,16.57
2023-04-18T14:55:31.209Z,16.55
2023-04-18T14:58:02.758Z,16.53
2023-04-18T15:00:34.054Z,16.50
2023-04-18T15:03:05.996Z,16.50
2023-04-18T15:05:42.937Z,16.53
2023-04-18T15:08:14.713Z,16.53
2023-04-18T15:10:47.702Z,16.48
2023-04-18T15:13:19.178Z,16.49
2023-04-18T15:15:57.344Z,16.50
2023-04-18T15:18:28.955Z,16.44
2023-04-18T15:21:00.537Z,16.33
2023-04-18T15:23:32.105Z,16.32
2023-04-18T15:26:03.628Z,16.32
2023-04-18T15:28:35.061Z,16.31
2023-04-18T15:31:06.985Z,16.31
2023-04-18T15:33:38.530Z,16.26
2023-04-18T15:36:10.323Z,16.20
2023-04-18T15:38:43.110Z,16.20
2023-04-18T15:41:14.236Z,16.15
2023-04-18T15:43:45.834Z,16.10
2023-04-18T15:46:17.547Z,16.06
2023-04-18T15:48:49.229Z,16.06
2023-04-18T15:51:20.750Z,16.03
2023-04-18T15:53:52.766Z,15.96
2023-04-18T15:56:26.177Z,15.86
2023-04-18T15:58:57.884Z,15.87
2023-04-18T16:01:29.807Z,15.91
2023-04-18T16:04:01.675Z,15.87
2023-04-18T16:06:33.882Z,15.84
2023-04-18T16:09:06.988Z,15.79
2023-04-18T16:11:38.462Z,15.74
2023-04-18T16:14:10.021Z,15.73
2023-04-18T16:16:41.395Z,15.70
2023-04-18T16:19:12.892Z,15.65
2023-04-18T16:21:44.346Z,15.65
2023-04-18T16:24:17.382Z,15.62
2023-04-18T16:26:49.088Z,15.60
2023-04-18T16:29:20.652Z,15.61
2023-04-18T16:31:52.144Z,15.55
2023-04-18T16:34:23.355Z,15.49
2023-04-18T16:36:55.588Z,15.42
2023-04-18T16:39:28.228Z,15.40
2023-04-18T16:41:59.652Z,15.32
2023-04-18T16:44:31.372Z,15.25
2023-04-18T16:47:02.953Z,15.23
2023-04-18T16:49:34.376Z,15.19
2023-04-18T16:52:06.036Z,15.17
2023-04-18T16:54:37.253Z,15.17
2023-04-18T16:57:08.644Z,15.11
2023-04-18T16:59:39.765Z,15.01
2023-04-18T17:02:12.036Z,14.98
2023-04-18T17:04:43.855Z,14.94
2023-04-18T17:07:15.427Z,14.89
2023-04-18T17:09:46.737Z,14.81
2023-04-18T17:12:18.090Z,14.73
2023-04-18T17:14:49.614Z,14.67
2023-04-18T17:17:21.193Z,14.65
2023-04-18T17:19:52.947Z,14.62
2023-04-18T17:22:24.263Z,14.62
2023-04-18T17:24:55.545Z,14.59
2023-04-18T17:27:26.920Z,14.60
2023-04-18T17:29:58.516Z,14.54
2023-04-18T17:32:29.986Z,14.50
2023-04-18T17:35:04.368Z,14.45
2023-04-18T17:37:35.533Z,14.40
2023-04-18T17:40:09.797Z,14.27
2023-04-18T17:42:41.682Z,14.23
2023-04-18T17:45:13.124Z,14.23
2023-04-18T17:47:44.598Z,14.23
2023-04-18T17:50:15.997Z,14.21
2023-04-18T17:52:47.418Z,14.19
2023-04-18T17:55:19.028Z,14.17
2023-04-18T17:57:50.542Z,14.18
2023-04-18T18:00:22.215Z,14.19
2023-04-18T18:02:53.762Z,14.14
2023-04-18T18:05:28.271Z,14.11
2023-04-18T18:08:00.109Z,14.06
2023-04-18T18:10:32.100Z,13.99
2023-04-18T18:13:03.543Z,13.95
2023-04-18T18:15:35.695Z,14.00
2023-04-18T18:18:07.683Z,14.02
2023-04-18T18:20:39.478Z,13.99
2023-04-18T18:23:11.211Z,13.92
2023-04-18T18:25:43.211Z,13.86
2023-04-18T18:28:14.515Z,13.88
2023-04-18T18:30:46.108Z,13.89
2023-04-18T18:33:17.879Z,13.80
2023-04-18T18:35:49.245Z,13.76
2023-04-18T18:38:20.493Z,13.71
2023-04-18T18:40:51.880Z,13.68
2023-04-18T18:43:26.424Z,13.63
2023-04-18T18:45:58.211Z,13.58
2023-04-18T18:48:30.022Z,13.51
2023-04-18T18:51:01.423Z,13.47
2023-04-18T18:53:32.786Z,13.48
2023-04-18T18:56:04.001Z,13.51
2023-04-18T18:58:35.748Z,13.51
2023-04-18T19:01:07.291Z,13.45
2023-04-18T19:03:38.744Z,13.47
2023-04-18T19:06:10.202Z,13.48
2023-04-18T19:08:41.638Z,13.45
2023-04-18T19:11:13.181Z,13.36
2023-04-18T19:13:44.648Z,13.32
2023-04-18T19:16:16.021Z,13.26
2023-04-18T19:18:49.471Z,13.21
2023-04-18T19:21:24.053Z,13.16
2023-04-18T19:23:55.866Z,13.15
2023-04-18T19:26:27.173Z,13.10
2023-04-18T19:28:58.438Z,13.08
2023-04-18T19:31:29.707Z,13.05
2023-04-18T19:34:00.975Z,13.04
2023-04-18T19:36:32.667Z,13.05
2023-04-18T19:39:07.112Z,13.02
2023-04-18T19:41:38.353Z,12.99
2023-04-18T19:44:09.466Z,12.95
2023-04-18T19:46:40.832Z,12.95
2023-04-18T19:49:12.825Z,12.95
2023-04-18T19:51:44.601Z,12.92
2023-04-18T19:54:16.102Z,12.96
2023-04-18T19:56:47.468Z,12.98
2023-04-18T19:59:19.204Z,12.99
2023-04-18T20:01:50.723Z,13.00
2023-04-18T20:04:23.876Z,12.99
2023-04-18T20:06:56.311Z,12.95
2023-04-18T20:09:27.675Z,12.91
2023-04-18T20:12:01.617Z,12.88
2023-04-18T20:14:33.268Z,12.88
2023-04-18T20:17:04.904Z,12.87
2023-04-18T20:19:36.568Z,12.89
2023-04-18T20:22:07.958Z,12.92
2023-04-18T20:24:40.440Z,12.91
2023-04-18T20:27:12.066Z,12.85
2023-04-18T20:29:43.821Z,12.76
2023-04-18T20:32:15.020Z,12.71
2023-04-18T20:34:47.007Z,12.66
2023-04-18T20:37:20.059Z,12.64
2023-04-18T20:39:53.024Z,12.68
2023-04-18T20:42:24.429Z,12.70
2023-04-18T20:44:55.693Z,12.68
2023-04-18T20:47:27.904Z,12.66
2023-04-18T20:50:00.526Z,12.63
2023-04-18T20:52:32.119Z,12.56
2023-04-18T20:55:03.705Z,12.56
2023-04-18T20:57:35.117Z,12.58
2023-04-18T21:00:07.360Z,12.58
2023-04-18T21:02:39.074Z,12.56
2023-04-18T21:05:10.962Z,12.58
2023-04-18T21:07:44.106Z,12.57
2023-04-18T21:10:17.173Z,12.60
2023-04-18T21:12:48.474Z,12.59
2023-04-18T21:15:19.978Z,12.56
2023-04-18T21:17:52.300Z,12.59
2023-04-18T21:20:24.035Z,12.59
2023-04-18T21:22:55.343Z,12.58
2023-04-18T21:25:26.668Z,12.56
2023-04-18T21:27:58.191Z,12.53
2023-04-18T21:30:29.750Z,12.49
2023-04-18T21:33:01.527Z,12.47
2023-04-18T21:35:32.901Z,12.44
2023-04-18T21:38:04.079Z,12.41
2023-04-18T21:40:35.684Z,12.42
2023-04-18T21:43:07.281Z,12.46
2023-04-18T21:45:38.936Z,12.47
2023-04-18T21:48:11.635Z,12.45
2023-04-18T21:50:43.192Z,12.39
2023-04-18T21:53:14.608Z,12.33
2023-04-18T21:55:46.229Z,12.26
2023-04-18T21:58:17.815Z,12.25
2023-04-18T22:00:49.193Z,12.25
2023-04-18T22:03:20.764Z,12.28
2023-04-18T22:05:53.447Z,12.30
2023-04-18T22:08:26.493Z,12.32
2023-04-18T22:10:59.296Z,12.36
2023-04-18T22:13:32.992Z,12.41
2023-04-18T22:16:04.934Z,12.40
2023-04-18T22:18:37.989Z,12.44
2023-04-18T22:21:10.733Z,12.47
2023-04-18T22:23:42.308Z,12.43
2023-04-18T22:26:13.632Z,12.45
2023-04-18T22:28:45.044Z,12.48
2023-04-18T22:31:16.633Z,12.49
2023-04-18T22:33:48.689Z,12.55
2023-04-18T22:36:20.141Z,12.65
2023-04-18T22:38:51.515Z,12.77
2023-04-18T22:41:22.836Z,12.85
2023-04-18T22:43:54.278Z,12.88
2023-04-18T22:46:26.253Z,12.92
2023-04-18T22:48:57.843Z,12.93
2023-04-18T22:51:29.159Z,12.93
2023-04-18T22:54:00.538Z,12.91
2023-04-18T22:56:31.937Z,12.93
2023-04-18T22:59:03.314Z,12.91
2023-04-18T23:01:34.868Z,12.87
2023-04-18T23:04:06.392Z,12.82
2023-04-18T23:06:38.866Z,12.82
2023-04-18T23:09:10.453Z,12.81
2023-04-18T23:11:41.949Z,12.86
2023-04-18T23:14:15.815Z,12.90
2023-04-18T23:16:47.433Z,12.92
2023-04-18T23:19:18.724Z,12.96
2023-04-18T23:21:50.276Z,12.96
2023-04-18T23:24:21.631Z,12.90
2023-04-18T23:26:53.128Z,12.84
2023-04-18T23:29:24.522Z,12.81
2023-04-18T23:31:55.898Z,12.78
2023-04-18T23:34:27.377Z,12.79
2023-04-18T23:36:58.991Z,12.78
2023-04-18T23:39:30.327Z,12.70
2023-04-18T23:42:01.673Z,12.61
2023-04-18T23:44:33.071Z,12.54
2023-04-18T23:47:04.668Z,12.53
2023-04-18T23:49:36.240Z,12.57
2023-04-18T23:52:08.401Z,12.59
2023-04-18T23:54:39.638Z,12.59
2023-04-18T23:57:11.045Z,12.57
2023-04-18T23:59:42.499Z,12.50
